• Join FlightAware (Why Join?)
  • Login
  • US Flag 
12:25AM EDT


 

Airport Tracker/Info


-or-


 

Live Flight TrackerFlight Track Log ✈ KAL1338 ✈ 27-Jun-2013 ✈ RKJY / RSU - RKSS / GMP

Flight Track Log - Related Links

Times and Time Zones

All times are in EDT time to prevent confusion due to time zone crossing. See the KAL1338 flight status page for this flight to view local times or setup timezone preferences in your user account.

Time Position Orientation Groundspeed Altitude Reporting Facility
EDT Latitude Longitude Course Direction KTS MPH feet Rate Location/Type
05:12AM 35.0671 127.5486 346° North  Level Estimated
05:13AM 35.1428 127.5263 346° North  Level Estimated
05:14AM 35.2185 127.5039 346° North  Level Estimated
05:15AM 35.2943 127.4815 346° North  Level Estimated
05:16AM 35.3700 127.4590 346° North  Level Estimated
05:17AM 35.4457 127.4365 346° North  Level Estimated
05:18AM 35.5214 127.4140 346° North  Level Estimated
05:19AM 35.5971 127.3914 346° North  Level Estimated
05:20AM 35.6729 127.3688 346° North  Level Estimated
05:21AM 35.7486 127.3461 346° North  Level Estimated
05:22AM 35.8243 127.3234 346° North  Level Estimated
05:23AM 35.9000 127.3007 346° North  Level Estimated
05:24AM 35.9757 127.2779 346° North  Level Estimated
05:25AM 36.0513 127.2550 346° North  Level Estimated
05:26AM 36.1069 127.2382 346° North  Level Estimated
05:27AM 36.1626 127.2214 346° North  Level Estimated
05:28AM 36.2182 127.2045 346° North  Level Estimated
05:29AM 36.2738 127.1877 346° North  Level Estimated
05:30AM 36.3293 127.1708 346° North  Level Estimated
05:31AM 36.3849 127.1538 346° North  Level Estimated
05:32AM 36.4405 127.1369 346° North  Level Estimated
05:33AM 36.4961 127.1199 346° North  Level Estimated
05:34AM 36.5517 127.1029 346° North  Level Estimated
05:35AM 36.6073 127.0859 346° North  Level Estimated
05:36AM 36.6629 127.0688 346° North  Level Estimated
05:37AM 36.7184 127.0518 346° North  Level Estimated
05:38AM 36.7740 127.0347 346° North  Level Estimated
05:39AM 36.8296 127.0175 346° North  Level Estimated
05:40AM 36.8852 127.0004 346° North  Level Estimated
05:41AM 36.9407 126.9832 346° North  Level Estimated
05:42AM 36.9963 126.9660 346° North  Level Estimated
05:43AM 37.0519 126.9488 346° North  Level Estimated
05:44AM 37.1074 126.9315 346° North  Level Estimated
05:45AM 37.1630 126.9143 346° North  Level Estimated
05:46AM 37.2186 126.8970 346° North  Level Estimated
05:47AM 37.2741 126.8796 346° North  Level Estimated
05:48AM 37.3297 126.8623 346° North  Level Estimated
05:49AM 37.3852 126.8449 346° North  Level Estimated
05:50AM 37.4408 126.8275 346° North  Level Estimated
05:51AM 37.4963 126.8101 346° North  Level Estimated
05:52AM 37.5518 126.7926 346° North  Level Estimated
05:53AM 37.5583 126.7906 346° North  Level Estimated
05:54AM 37.5583 126.7906 288° West  Level Estimated
05:55AM 37.5583 126.7906 288° West  Level Estimated
05:56AM 37.5583 126.7906 288° West  Level Estimated
05:57AM 37.5583 126.7906 288° West  Level Estimated
05:58AM 37.5583 126.7906 288° West  Level Estimated
05:59AM 37.5583 126.7906 288° West  Level Estimated